Time;durP1;ratioP1;P1;durP2;ratioP2;P2;SDS_P1;SDS_P2;PMS_P1;PMS_P2;Temp;Humidity;BMP_temperature;BMP_pressure;BME280_temperature;BME280_humidity;BME280_pressure;Samples;Min_cycle;Max_cycle;Signal;HPM_P1;HPM_P2
2023/12/26 00:00:19;;;;;;;4.18;0.70;;;;;;;12.95;94.67;100045.34;5031688;27;97230;-75
2023/12/26 00:02:47;;;;;;;6.35;0.88;;;;;;;12.60;95.97;100039.38;5024749;27;99078;-76
2023/12/26 00:05:13;;;;;;;2.00;0.65;;;;;;;12.65;95.52;100024.91;5032163;27;99293;-76
2023/12/26 00:07:40;;;;;;;3.78;1.13;;;;;;;12.66;95.55;100028.44;5033263;27;96693;-76
2023/12/26 00:10:07;;;;;;;2.88;0.77;;;;;;;12.85;95.34;100017.66;5033535;28;97471;-76
2023/12/26 00:12:33;;;;;;;3.92;0.80;;;;;;;13.16;93.57;100012.34;5029832;27;99400;-75
2023/12/26 00:15:00;;;;;;;1.13;0.60;;;;;;;13.08;93.17;100004.78;5028356;27;98498;-75
2023/12/26 00:17:25;;;;;;;4.63;0.60;;;;;;;13.11;93.69;100007.28;5032623;27;97343;-76
2023/12/26 00:19:53;;;;;;;;;;;;;;;13.44;91.90;100009.81;5027762;27;96810;-76
2023/12/26 00:22:19;;;;;;;2.75;0.82;;;;;;;13.35;91.86;100007.69;5022854;27;98997;-75
2023/12/26 00:24:48;;;;;;;2.80;0.80;;;;;;;13.20;92.36;99997.09;5032493;27;98768;-76
2023/12/26 00:27:14;;;;;;;4.18;1.08;;;;;;;13.34;92.03;99998.00;5032580;27;97350;-76
2023/12/26 00:29:41;;;;;;;1.23;0.43;;;;;;;13.18;93.00;99999.00;5032256;27;97485;-75
2023/12/26 00:32:07;;;;;;;5.40;0.70;;;;;;;13.16;93.31;99997.28;5032426;27;98840;-76
2023/12/26 00:34:34;;;;;;;3.00;0.80;;;;;;;13.36;92.83;99976.69;5037043;27;98761;-75
2023/12/26 00:37:01;;;;;;;4.80;1.02;;;;;;;13.37;92.25;99973.94;5026248;27;96765;-76
2023/12/26 00:39:28;;;;;;;2.20;0.77;;;;;;;13.30;92.66;99967.28;5028753;27;96724;-76
2023/12/26 00:41:54;;;;;;;3.05;0.90;;;;;;;13.47;91.93;99955.66;5023333;27;98908;-76
2023/12/26 00:44:21;;;;;;;2.53;0.80;;;;;;;13.48;92.04;99955.59;5023893;27;97809;-76
2023/12/26 00:46:47;;;;;;;1.95;0.98;;;;;;;13.55;91.69;99950.75;5027458;27;98589;-76
2023/12/26 00:49:14;;;;;;;1.33;0.73;;;;;;;13.35;92.35;99951.09;5029448;27;97179;-76
2023/12/26 00:51:40;;;;;;;1.13;0.73;;;;;;;13.48;92.29;99944.09;5019987;27;98874;-76
2023/12/26 00:54:08;;;;;;;3.50;0.70;;;;;;;13.49;91.79;99945.81;5030102;27;98812;-76
2023/12/26 00:56:34;;;;;;;1.95;0.90;;;;;;;13.31;92.62;99947.78;5032283;27;97266;-75
2023/12/26 00:59:00;;;;;;;2.28;0.70;;;;;;;13.30;93.54;99950.53;5032801;28;97067;-76
2023/12/26 01:01:27;;;;;;;3.10;0.90;;;;;;;13.28;93.33;99941.78;5020518;27;101573;-76
2023/12/26 01:03:53;;;;;;;2.47;0.90;;;;;;;13.28;93.20;99939.13;5031559;27;98039;-76
2023/12/26 01:06:19;;;;;;;1.70;1.00;;;;;;;13.25;93.92;99942.84;5031996;27;96736;-75
2023/12/26 01:08:45;;;;;;;6.32;4.05;;;;;;;12.90;95.99;99934.25;5028396;27;96741;-76
2023/12/26 01:11:13;;;;;;;1.50;0.80;;;;;;;13.03;95.28;99927.28;5027373;27;99137;-77
2023/12/26 01:13:40;;;;;;;1.10;0.68;;;;;;;13.14;95.44;99932.00;5031373;27;98985;-76
2023/12/26 01:16:07;;;;;;;3.03;0.82;;;;;;;13.22;95.10;99924.44;5025015;27;96611;-76
2023/12/26 01:18:33;;;;;;;4.28;0.73;;;;;;;13.08;95.23;99927.88;5030382;27;96820;-76
2023/12/26 01:21:00;;;;;;;2.00;0.55;;;;;;;13.01;95.86;99917.69;5031120;27;98805;-76
2023/12/26 01:23:27;;;;;;;1.95;0.60;;;;;;;13.24;95.57;99903.13;5032294;27;97488;-75
2023/12/26 01:25:53;;;;;;;1.75;0.65;;;;;;;13.44;93.59;99905.44;5032457;27;97352;-76
2023/12/26 01:28:22;;;;;;;3.90;0.70;;;;;;;13.67;92.88;99899.56;5027652;27;96781;-76
2023/12/26 01:30:48;;;;;;;1.70;0.50;;;;;;;13.71;92.15;99901.13;5030733;27;99414;-76
2023/12/26 01:33:14;;;;;;;2.25;0.75;;;;;;;13.62;92.62;99896.34;5031469;27;99190;-76
2023/12/26 01:35:41;;;;;;;3.33;0.68;;;;;;;13.51;93.29;99897.03;5035494;27;96684;-76
2023/12/26 01:38:07;;;;;;;1.52;0.50;;;;;;;13.49;93.46;99898.91;5031471;27;96871;-76
2023/12/26 01:40:33;;;;;;;2.90;0.55;;;;;;;13.45;93.67;99896.53;5032303;27;99312;-76
2023/12/26 01:43:00;;;;;;;1.45;0.70;;;;;;;13.38;93.99;99884.59;5031613;27;101053;-76
2023/12/26 01:45:27;;;;;;;1.15;0.50;;;;;;;13.33;94.61;99878.69;5031313;27;97135;-76
2023/12/26 01:47:57;;;;;;;1.48;0.70;;;;;;;12.80;97.95;99877.38;5031847;27;97073;-76
2023/12/26 01:50:25;;;;;;;2.55;0.55;;;;;;;12.99;97.13;99871.88;5029815;27;99004;-76
2023/12/26 01:52:52;;;;;;;0.32;0.32;;;;;;;12.88;97.13;99864.53;5020778;28;101477;-75
2023/12/26 01:55:19;;;;;;;0.88;0.47;;;;;;;12.65;99.26;99863.25;5020099;27;96933;-76
2023/12/26 01:57:47;;;;;;;0.70;0.38;;;;;;;12.93;98.55;99851.84;5023785;27;97213;-76
2023/12/26 02:00:14;;;;;;;1.38;0.43;;;;;;;13.25;97.44;99857.09;5028522;27;99134;-76
2023/12/26 02:02:43;;;;;;;0.50;0.30;;;;;;;13.29;96.43;99848.00;5022150;27;98873;-75
2023/12/26 02:05:12;;;;;;;0.45;0.30;;;;;;;12.82;98.46;99838.38;5032016;27;96908;-74
2023/12/26 02:07:38;;;;;;;0.30;0.30;;;;;;;13.05;99.04;99840.53;5030379;27;97153;-76
2023/12/26 02:10:06;;;;;;;0.82;0.20;;;;;;;13.08;98.33;99835.03;5018814;27;99481;-76
2023/12/26 02:12:33;;;;;;;0.20;0.20;;;;;;;12.60;100.00;99833.47;5032134;27;98151;-77
2023/12/26 02:15:02;;;;;;;0.95;0.40;;;;;;;12.70;100.00;99833.81;5031785;27;97319;-75
2023/12/26 02:17:30;;;;;;;0.28;0.20;;;;;;;12.84;100.00;99830.34;5031352;27;96650;-77
2023/12/26 02:19:58;;;;;;;1.23;0.30;;;;;;;12.96;100.00;99834.91;5030152;27;97786;-76
2023/12/26 02:22:24;;;;;;;0.63;0.15;;;;;;;12.72;100.00;99821.34;5032280;27;101025;-76
2023/12/26 02:24:52;;;;;;;0.35;0.30;;;;;;;13.02;99.86;99822.16;5023203;27;97153;-76
2023/12/26 02:27:24;;;;;;;0.20;0.20;;;;;;;13.31;98.63;99824.88;5031625;27;96947;-76
2023/12/26 02:29:53;;;;;;;0.15;0.10;;;;;;;13.38;97.92;99811.16;5024256;27;99356;-76
2023/12/26 02:32:21;;;;;;;0.17;0.00;;;;;;;13.40;97.81;99808.38;5027657;27;102374;-76
2023/12/26 02:34:48;;;;;;;0.00;0.00;;;;;;;13.23;97.67;99805.91;5036058;27;97036;-76
2023/12/26 02:37:15;;;;;;;0.10;0.00;;;;;;;12.45;100.00;99810.53;5021320;27;96727;-75
2023/12/26 02:39:43;;;;;;;0.00;0.00;;;;;;;12.48;100.00;99807.69;5022674;28;101674;-76
2023/12/26 02:42:12;;;;;;;0.35;0.00;;;;;;;12.15;100.00;99805.19;5020472;27;99262;-77
2023/12/26 02:44:39;;;;;;;3.42;0.13;;;;;;;12.40;100.00;99799.34;5017432;27;97226;-75
2023/12/26 02:47:05;;;;;;;0.77;0.20;;;;;;;12.57;100.00;99806.31;5022238;27;97245;-75
2023/12/26 02:49:31;;;;;;;0.65;0.30;;;;;;;12.84;100.00;99794.09;5020426;27;99170;-75
2023/12/26 02:51:58;;;;;;;0.10;0.00;;;;;;;13.06;100.00;99788.34;5026067;27;99236;-76
2023/12/26 02:54:24;;;;;;;0.30;0.10;;;;;;;13.07;100.00;99787.38;5030615;27;97101;-75
2023/12/26 02:56:50;;;;;;;1.13;0.10;;;;;;;13.09;100.00;99782.84;5030680;27;97045;-75
2023/12/26 02:59:18;;;;;;;0.10;0.10;;;;;;;12.37;100.00;99779.19;5030681;27;99526;-76
2023/12/26 03:01:45;;;;;;;0.35;0.10;;;;;;;11.97;100.00;99769.16;5025062;27;99662;-76
2023/12/26 03:04:12;;;;;;;0.55;0.00;;;;;;;11.89;100.00;99779.31;5019161;27;97090;-76
2023/12/26 03:06:39;;;;;;;0.00;0.00;;;;;;;11.73;100.00;99775.81;5028265;27;97433;-76
2023/12/26 03:09:05;;;;;;;0.00;0.00;;;;;;;11.66;100.00;99771.78;5029786;27;98079;-76
2023/12/26 03:11:32;;;;;;;0.88;0.03;;;;;;;11.97;100.00;99772.66;5026525;27;99754;-75
2023/12/26 03:13:59;;;;;;;0.00;0.00;;;;;;;12.25;100.00;99773.75;5030466;27;97312;-76
2023/12/26 03:16:26;;;;;;;1.38;0.00;;;;;;;12.25;100.00;99771.94;5030664;27;96917;-77
2023/12/26 03:18:53;;;;;;;0.20;0.10;;;;;;;11.82;100.00;99780.59;5021730;27;99982;-77
2023/12/26 03:21:20;;;;;;;0.60;0.00;;;;;;;11.80;100.00;99767.47;5029602;27;99052;-76
2023/12/26 03:23:46;;;;;;;0.00;0.00;;;;;;;12.27;100.00;99771.88;5029744;27;96978;-77
2023/12/26 03:26:12;;;;;;;0.10;0.00;;;;;;;12.29;100.00;99768.16;5025097;27;97035;-76
2023/12/26 03:28:39;;;;;;;0.00;0.00;;;;;;;12.30;100.00;99769.03;5029929;27;98944;-74
2023/12/26 03:31:06;;;;;;;0.03;0.00;;;;;;;12.41;100.00;99768.41;5029067;27;100505;-76
2023/12/26 03:33:34;;;;;;;0.65;0.10;;;;;;;12.41;100.00;99763.94;5021374;27;96926;-76
2023/12/26 03:36:02;;;;;;;0.03;0.00;;;;;;;12.53;100.00;99770.34;5034474;27;96725;-76
2023/12/26 03:38:28;;;;;;;0.08;0.00;;;;;;;12.35;100.00;99774.91;5022025;27;99172;-76
2023/12/26 03:40:55;;;;;;;0.00;0.00;;;;;;;12.50;100.00;99754.63;5029390;27;98791;-75
2023/12/26 03:43:21;;;;;;;0.85;0.03;;;;;;;12.76;100.00;99753.91;5031239;27;96660;-75
2023/12/26 03:45:49;;;;;;;0.00;0.00;;;;;;;12.43;100.00;99771.81;5022236;27;97313;-75
2023/12/26 03:48:16;;;;;;;0.00;0.00;;;;;;;12.05;100.00;99768.72;5030471;27;97002;-75
2023/12/26 03:50:43;;;;;;;1.35;0.10;;;;;;;12.27;100.00;99769.22;5038309;27;97083;-76
2023/12/26 03:53:10;;;;;;;0.38;0.10;;;;;;;12.57;100.00;99759.47;5034794;28;96765;-76
2023/12/26 03:55:36;;;;;;;0.38;0.00;;;;;;;12.19;100.00;99763.50;5034435;27;96783;-75
2023/12/26 03:58:02;;;;;;;0.00;0.00;;;;;;;12.36;100.00;99773.97;5034538;27;96864;-76
2023/12/26 04:00:29;;;;;;;0.08;0.03;;;;;;;12.30;100.00;99763.72;5030433;27;98784;-75
2023/12/26 04:02:55;;;;;;;0.40;0.05;;;;;;;12.50;100.00;99757.25;5026577;27;96730;-75
2023/12/26 04:05:22;;;;;;;0.00;0.00;;;;;;;12.10;100.00;99759.59;5035054;27;96865;-76
2023/12/26 04:07:50;;;;;;;0.00;0.00;;;;;;;11.94;100.00;99756.13;5034061;27;98765;-76
2023/12/26 04:10:16;;;;;;;0.00;0.00;;;;;;;11.63;100.00;99769.28;5035109;27;99076;-76
2023/12/26 04:12:42;;;;;;;0.00;0.00;;;;;;;12.04;100.00;99765.22;5035414;27;97177;-76
2023/12/26 04:15:09;;;;;;;1.00;0.32;;;;;;;12.21;100.00;99773.06;5043722;27;97325;-76
2023/12/26 04:17:36;;;;;;;0.25;0.03;;;;;;;12.32;100.00;99775.09;5033313;27;98293;-76
2023/12/26 04:20:02;;;;;;;0.05;0.00;;;;;;;12.10;100.00;99775.47;5027609;27;99192;-76
2023/12/26 04:22:29;;;;;;;0.10;0.00;;;;;;;11.98;100.00;99773.53;5029141;27;97357;-76
2023/12/26 04:24:56;;;;;;;0.20;0.08;;;;;;;11.83;100.00;99774.38;5032362;27;97037;-76
2023/12/26 04:27:23;;;;;;;1.08;0.00;;;;;;;12.18;100.00;99769.75;5032748;27;100461;-76
2023/12/26 04:29:49;;;;;;;0.20;0.10;;;;;;;11.93;100.00;99779.09;5023582;27;98776;-76
2023/12/26 04:32:15;;;;;;;0.28;0.10;;;;;;;11.70;100.00;99773.31;5033314;27;97310;-76
2023/12/26 04:34:42;;;;;;;0.00;0.00;;;;;;;11.80;100.00;99787.78;5032597;27;97350;-76
2023/12/26 04:37:08;;;;;;;0.10;0.10;;;;;;;11.97;100.00;99790.34;5026474;27;97844;-76
2023/12/26 04:39:34;;;;;;;2.35;0.13;;;;;;;12.13;100.00;99785.91;5031846;27;99394;-77
2023/12/26 04:42:02;;;;;;;0.10;0.10;;;;;;;12.36;100.00;99777.47;5032627;27;96790;-76
2023/12/26 04:44:29;;;;;;;0.17;0.03;;;;;;;12.45;100.00;99780.53;5032512;27;97046;-71
2023/12/26 04:46:55;;;;;;;0.10;0.00;;;;;;;12.17;100.00;99792.72;5030072;27;99401;-70
2023/12/26 04:49:22;;;;;;;0.10;0.00;;;;;;;12.30;100.00;99793.72;5031334;27;98933;-71
2023/12/26 04:51:49;;;;;;;0.10;0.10;;;;;;;11.51;100.00;99794.63;5032272;27;97462;-71
2023/12/26 04:54:15;;;;;;;0.13;0.13;;;;;;;11.59;100.00;99795.09;5032312;27;96838;-70
2023/12/26 04:56:43;;;;;;;0.10;0.10;;;;;;;11.72;100.00;99805.84;5022373;27;98991;-70
2023/12/26 04:59:11;;;;;;;1.35;0.20;;;;;;;11.81;100.00;99806.25;5018724;27;99263;-70
2023/12/26 05:01:41;;;;;;;0.00;0.00;;;;;;;11.61;100.00;99819.69;5015837;27;96827;-70
2023/12/26 05:04:09;;;;;;;0.10;0.10;;;;;;;11.86;100.00;99806.84;5032428;28;96887;-70
2023/12/26 05:06:36;;;;;;;0.30;0.00;;;;;;;11.71;100.00;99810.28;5030584;27;99006;-70
2023/12/26 05:09:03;;;;;;;0.28;0.00;;;;;;;11.82;100.00;99807.06;5018490;27;101557;-69
2023/12/26 05:11:29;;;;;;;0.08;0.08;;;;;;;11.97;100.00;99809.72;5027170;27;97459;-70
2023/12/26 05:13:55;;;;;;;1.17;0.10;;;;;;;11.43;100.00;99802.13;5031375;27;96884;-70
2023/12/26 05:16:23;;;;;;;0.57;0.10;;;;;;;12.25;100.00;99806.38;5036627;27;99102;-70
2023/12/26 05:18:49;;;;;;;0.00;0.00;;;;;;;11.70;100.00;99805.06;5029443;27;99700;-70
2023/12/26 05:21:19;;;;;;;0.10;0.10;;;;;;;11.78;100.00;99808.19;5031682;27;96894;-70
2023/12/26 05:23:46;;;;;;;0.00;0.00;;;;;;;12.04;100.00;99812.88;5023409;27;97112;-70
2023/12/26 05:26:12;;;;;;;0.25;0.10;;;;;;;12.10;100.00;99812.53;5030516;27;98122;-71
2023/12/26 05:28:39;;;;;;;0.00;0.00;;;;;;;12.30;100.00;99820.22;5031459;27;98785;-70
2023/12/26 05:31:05;;;;;;;0.00;0.00;;;;;;;12.20;100.00;99813.75;5030933;27;96723;-70
2023/12/26 05:33:33;;;;;;;0.45;0.08;;;;;;;11.75;100.00;99826.91;5025079;27;96761;-70
2023/12/26 05:36:00;;;;;;;0.00;0.00;;;;;;;12.13;100.00;99833.56;5030122;27;98774;-70
2023/12/26 05:38:27;;;;;;;0.35;0.10;;;;;;;12.19;100.00;99825.28;5031316;27;98825;-69
2023/12/26 05:40:52;;;;;;;1.40;0.10;;;;;;;12.10;100.00;99828.44;5030621;27;96775;-69
2023/12/26 05:43:19;;;;;;;;;;;;;;;12.04;100.00;99831.44;5032112;27;97245;-70
2023/12/26 05:45:45;;;;;;;0.43;0.20;;;;;;;11.54;100.00;99835.03;5030358;27;98036;-70
2023/12/26 05:48:12;;;;;;;0.35;0.30;;;;;;;11.83;100.00;99836.09;5030915;27;98855;-70
2023/12/26 05:50:39;;;;;;;0.68;0.57;;;;;;;11.55;100.00;99844.66;5022174;27;96798;-70
2023/12/26 05:53:06;;;;;;;0.52;0.10;;;;;;;11.98;100.00;99839.72;5031624;27;96848;-72
2023/12/26 05:55:32;;;;;;;0.40;0.10;;;;;;;12.39;100.00;99845.34;5030411;27;99282;-71
2023/12/26 05:57:58;;;;;;;0.82;0.45;;;;;;;12.75;100.00;99847.63;5030629;27;101945;-70
2023/12/26 06:00:25;;;;;;;0.10;0.10;;;;;;;12.23;100.00;99855.94;5026315;27;96676;-70
2023/12/26 06:02:51;;;;;;;0.03;0.00;;;;;;;12.16;100.00;99854.56;5030174;27;96796;-70
2023/12/26 06:05:17;;;;;;;0.20;0.10;;;;;;;12.50;100.00;99864.13;5027195;27;100735;-70
2023/12/26 06:07:45;;;;;;;0.30;0.10;;;;;;;12.09;100.00;99855.84;5027820;27;99014;-70
2023/12/26 06:10:13;;;;;;;0.60;0.10;;;;;;;12.29;100.00;99858.22;5030576;27;97276;-70
2023/12/26 06:12:40;;;;;;;0.45;0.20;;;;;;;12.09;100.00;99861.16;5030243;27;96846;-70
2023/12/26 06:15:07;;;;;;;2.33;0.70;;;;;;;12.42;100.00;99854.88;5026349;27;99199;-70
2023/12/26 06:17:34;;;;;;;1.00;0.30;;;;;;;12.28;100.00;99851.22;5026519;27;98366;-70
2023/12/26 06:20:00;;;;;;;1.13;0.47;;;;;;;12.30;100.00;99862.59;5021459;27;96881;-71
2023/12/26 06:22:27;;;;;;;2.67;1.45;;;;;;;12.38;100.00;99875.41;5031052;27;97101;-71
2023/12/26 06:24:54;;;;;;;0.10;0.00;;;;;;;12.61;100.00;99892.63;5029404;27;98845;-70
2023/12/26 06:27:21;;;;;;;0.57;0.10;;;;;;;13.07;99.65;99906.72;5021221;27;98849;-70
2023/12/26 06:29:47;;;;;;;0.00;0.00;;;;;;;12.82;100.00;99901.16;5036685;27;96756;-70
2023/12/26 06:32:13;;;;;;;1.65;0.10;;;;;;;12.21;100.00;99910.78;5030777;27;96785;-71
2023/12/26 06:34:40;;;;;;;0.08;0.08;;;;;;;12.05;100.00;99912.56;5031490;27;99501;-71
2023/12/26 06:37:06;;;;;;;1.95;0.10;;;;;;;12.33;100.00;99915.41;5021251;27;99427;-70
2023/12/26 06:39:32;;;;;;;1.65;0.08;;;;;;;12.33;100.00;99909.25;5029925;27;96994;-70
2023/12/26 06:42:00;;;;;;;0.20;0.00;;;;;;;12.24;100.00;99917.72;5030912;27;97066;-71
2023/12/26 06:44:26;;;;;;;0.00;0.00;;;;;;;11.69;100.00;99920.66;5030240;27;98323;-70
2023/12/26 06:46:52;;;;;;;0.00;0.00;;;;;;;11.73;100.00;99916.06;5029105;27;99280;-70
2023/12/26 06:49:19;;;;;;;0.00;0.00;;;;;;;11.67;100.00;99913.75;5034562;27;97149;-71
2023/12/26 06:51:46;;;;;;;0.25;0.05;;;;;;;11.68;100.00;99907.53;5028868;27;96798;-71
2023/12/26 06:54:12;;;;;;;2.53;0.10;;;;;;;11.49;100.00;99920.84;5025578;27;99156;-71
2023/12/26 06:56:39;;;;;;;0.17;0.00;;;;;;;11.67;100.00;99914.59;5029585;27;98815;-71
2023/12/26 06:59:07;;;;;;;0.10;0.00;;;;;;;11.71;100.00;99907.34;5017268;27;96805;-71
2023/12/26 07:01:33;;;;;;;0.10;0.00;;;;;;;11.20;100.00;99888.00;5035140;27;96786;-70
2023/12/26 07:04:00;;;;;;;0.00;0.00;;;;;;;11.23;100.00;99902.81;5021499;27;97587;-70
2023/12/26 07:06:27;;;;;;;2.72;0.10;;;;;;;11.30;100.00;99931.53;5029962;27;99314;-71
2023/12/26 07:08:53;;;;;;;1.02;0.20;;;;;;;11.63;100.00;99944.78;5026683;27;100045;-71
2023/12/26 07:11:19;;;;;;;0.22;0.10;;;;;;;11.46;100.00;99952.75;5030334;28;96831;-70
2023/12/26 07:13:46;;;;;;;0.00;0.00;;;;;;;11.31;100.00;99949.09;5020632;27;99118;-70
2023/12/26 07:16:13;;;;;;;0.10;0.10;;;;;;;11.21;100.00;99966.38;5022264;27;96861;-70
2023/12/26 07:18:40;;;;;;;0.28;0.10;;;;;;;11.38;100.00;99971.66;5019936;27;96718;-71
2023/12/26 07:21:06;;;;;;;0.00;0.00;;;;;;;11.18;100.00;99975.31;5023591;27;97088;-70
2023/12/26 07:23:32;;;;;;;1.45;0.10;;;;;;;11.05;100.00;99979.50;5029996;27;98916;-71
2023/12/26 07:25:59;;;;;;;1.45;0.10;;;;;;;11.14;100.00;99986.13;5018973;27;99582;-72
2023/12/26 07:28:25;;;;;;;0.40;0.08;;;;;;;11.61;100.00;99993.47;5033576;27;96834;-71
2023/12/26 07:30:51;;;;;;;0.13;0.10;;;;;;;11.26;100.00;99993.47;5033033;27;97137;-72
2023/12/26 07:33:19;;;;;;;0.00;0.00;;;;;;;10.97;100.00;99997.53;5033493;27;98923;-71
2023/12/26 07:35:45;;;;;;;1.20;0.05;;;;;;;11.28;100.00;99996.88;5034632;27;98870;-72
2023/12/26 07:38:12;;;;;;;1.38;0.00;;;;;;;11.26;100.00;99998.75;5024944;27;96812;-70
2023/12/26 07:40:39;;;;;;;0.52;0.10;;;;;;;11.03;100.00;100014.88;5032953;27;97349;-70
2023/12/26 07:43:05;;;;;;;0.13;0.10;;;;;;;10.79;100.00;100025.72;5024497;27;99186;-70
2023/12/26 07:45:32;;;;;;;0.90;0.03;;;;;;;10.94;100.00;100020.63;5032062;27;98525;-71
2023/12/26 07:47:58;;;;;;;1.05;0.20;;;;;;;11.26;100.00;100032.28;5033085;27;96778;-71
2023/12/26 07:50:26;;;;;;;2.10;0.10;;;;;;;11.41;100.00;100040.31;5032504;27;97011;-71
2023/12/26 07:52:52;;;;;;;0.60;0.00;;;;;;;11.68;99.26;100047.78;5032595;27;99149;-71
2023/12/26 07:55:19;;;;;;;0.43;0.15;;;;;;;11.68;99.14;100046.00;5024947;27;99523;-74
2023/12/26 07:57:45;;;;;;;1.58;0.10;;;;;;;11.56;98.96;100055.38;5033412;27;96812;-71
2023/12/26 08:00:13;;;;;;;1.65;0.20;;;;;;;11.76;98.42;100059.72;5032710;27;97247;-70
2023/12/26 08:02:39;;;;;;;0.43;0.20;;;;;;;11.68;98.43;100064.53;5032570;27;97839;-71
2023/12/26 08:05:05;;;;;;;0.13;0.10;;;;;;;11.82;97.05;100062.03;5032675;27;101278;-71
2023/12/26 08:07:33;;;;;;;0.38;0.10;;;;;;;11.80;97.65;100074.53;5032707;27;96793;-71
2023/12/26 08:10:00;;;;;;;0.55;0.20;;;;;;;11.78;97.60;100075.53;5031781;27;96788;-71
2023/12/26 08:12:26;;;;;;;0.77;0.20;;;;;;;11.65;97.92;100071.75;5032325;27;100858;-70
2023/12/26 08:14:52;;;;;;;0.77;0.30;;;;;;;11.52;98.36;100084.72;5031983;27;99009;-71
2023/12/26 08:17:19;;;;;;;1.58;0.20;;;;;;;11.38;98.35;100084.56;5032922;27;96943;-70
2023/12/26 08:19:45;;;;;;;1.05;0.20;;;;;;;11.52;97.57;100087.38;5024606;27;96857;-71
2023/12/26 08:22:11;;;;;;;1.85;0.20;;;;;;;11.42;97.37;100097.53;5032495;27;98973;-71
2023/12/26 08:24:39;;;;;;;0.60;0.28;;;;;;;11.51;97.39;100102.41;5028911;27;97663;-69
2023/12/26 08:27:06;;;;;;;1.10;0.20;;;;;;;11.62;96.22;100106.31;5029194;27;96795;-70
2023/12/26 08:29:33;;;;;;;0.40;0.30;;;;;;;11.71;95.54;100112.00;5020103;27;97120;-71
2023/12/26 08:31:59;;;;;;;2.83;0.63;;;;;;;11.64;95.81;100109.72;5032258;27;98989;-71
2023/12/26 08:34:26;;;;;;;3.13;0.35;;;;;;;11.69;94.47;100115.63;5034973;27;99307;-71
2023/12/26 08:36:53;;;;;;;2.65;0.38;;;;;;;11.53;94.62;100118.19;5031166;27;97102;-71
2023/12/26 08:39:20;;;;;;;1.10;0.30;;;;;;;11.47;96.04;100123.81;5031943;27;97438;-71
2023/12/26 08:41:47;;;;;;;1.63;0.30;;;;;;;11.60;94.35;100132.84;5015999;27;98968;-71
2023/12/26 08:44:14;;;;;;;3.97;0.88;;;;;;;11.63;95.02;100139.75;5029049;27;101759;-70
2023/12/26 08:46:40;;;;;;;2.72;0.38;;;;;;;11.58;95.93;100154.09;5026659;27;97075;-70
2023/12/26 08:49:06;;;;;;;2.15;0.50;;;;;;;11.58;93.86;100154.09;5031264;27;97096;-70
2023/12/26 08:51:37;;;;;;;1.40;0.22;;;;;;;11.80;92.70;100153.06;5037632;27;99491;-70
2023/12/26 08:54:04;;;;;;;2.55;0.40;;;;;;;11.98;91.68;100160.09;5033121;27;98886;-70
2023/12/26 08:56:30;;;;;;;1.42;0.40;;;;;;;11.68;92.73;100166.88;5031629;27;97087;-70
2023/12/26 08:58:58;;;;;;;0.82;0.40;;;;;;;12.23;89.87;100168.50;5026814;27;96956;-70
2023/12/26 09:01:24;;;;;;;0.75;0.55;;;;;;;11.62;91.16;100164.53;5031775;27;99437;-71
2023/12/26 09:03:51;;;;;;;3.05;0.50;;;;;;;11.62;92.28;100153.94;5026632;27;101816;-71
2023/12/26 09:06:17;;;;;;;1.75;0.35;;;;;;;11.63;91.65;100164.44;5030535;28;97776;-71
2023/12/26 09:08:44;;;;;;;1.85;0.38;;;;;;;11.94;90.67;100175.28;5024948;27;97309;-71
2023/12/26 09:11:10;;;;;;;2.22;0.32;;;;;;;11.82;90.43;100177.66;5029011;27;98290;-71
2023/12/26 09:13:36;;;;;;;3.05;0.40;;;;;;;11.92;90.40;100186.88;5025245;27;99055;-71
2023/12/26 09:16:04;;;;;;;3.50;1.08;;;;;;;11.26;91.92;100189.16;5029616;27;96807;-72
2023/12/26 09:18:31;;;;;;;3.88;0.82;;;;;;;11.68;91.24;100198.63;5026921;27;96749;-71
2023/12/26 09:20:57;;;;;;;2.15;0.40;;;;;;;11.46;90.33;100204.09;5020114;27;99042;-71
2023/12/26 09:23:23;;;;;;;5.32;0.60;;;;;;;11.49;90.05;100201.28;5027899;27;98285;-71
2023/12/26 09:25:50;;;;;;;6.60;0.52;;;;;;;11.44;89.46;100209.44;5030917;27;96797;-71
2023/12/26 09:28:16;;;;;;;3.20;0.50;;;;;;;11.21;89.96;100212.34;5027658;27;96963;-71
2023/12/26 09:30:43;;;;;;;2.65;0.82;;;;;;;11.06;91.78;100218.31;5030335;27;98890;-71
2023/12/26 09:33:11;;;;;;;6.88;0.77;;;;;;;10.94;91.67;100216.22;5029012;27;98750;-73
2023/12/26 09:35:37;;;;;;;4.43;0.52;;;;;;;11.13;91.68;100220.63;5031352;27;97382;-71
2023/12/26 09:38:04;;;;;;;6.05;0.75;;;;;;;11.67;89.77;100215.44;5030701;27;96895;-72
2023/12/26 09:40:30;;;;;;;3.10;0.50;;;;;;;12.23;86.27;100232.06;5029445;27;99206;-72
2023/12/26 09:43:00;;;;;;;5.97;0.60;;;;;;;11.66;86.90;100226.97;5030288;27;98899;-70
2023/12/26 09:45:27;;;;;;;4.35;0.50;;;;;;;12.03;86.32;100239.28;5030326;28;97140;-71
2023/12/26 09:47:54;;;;;;;3.60;0.50;;;;;;;11.95;85.63;100229.06;5029900;27;97250;-70
2023/12/26 09:50:22;;;;;;;5.18;0.77;;;;;;;12.18;84.93;100226.16;5028573;27;99227;-71
2023/12/26 09:52:53;;;;;;;2.97;0.60;;;;;;;12.49;82.75;100225.44;5026882;27;98791;-71
2023/12/26 09:55:19;;;;;;;2.85;0.50;;;;;;;11.59;85.63;100229.03;5030347;27;97231;-71
2023/12/26 09:57:46;;;;;;;4.57;0.57;;;;;;;11.57;85.88;100246.75;5030798;27;98023;-71
2023/12/26 10:00:13;;;;;;;4.78;0.60;;;;;;;11.25;87.30;100255.34;5023957;27;99064;-70
2023/12/26 10:02:39;;;;;;;5.45;0.73;;;;;;;11.68;85.32;100259.50;5029407;27;97267;-72
2023/12/26 10:05:07;;;;;;;3.35;0.63;;;;;;;12.05;83.63;100271.84;5029133;27;96781;-71
2023/12/26 10:07:34;;;;;;;1.60;0.40;;;;;;;11.58;84.15;100257.28;5030394;27;97609;-71
2023/12/26 10:10:01;;;;;;;3.85;1.15;;;;;;;11.74;84.21;100253.94;5030915;27;99032;-70
2023/12/26 10:12:30;;;;;;;4.82;0.57;;;;;;;12.32;80.99;100260.75;5031275;27;99182;-71
2023/12/26 10:14:58;;;;;;;4.90;0.70;;;;;;;11.79;81.02;100275.75;5029133;27;97928;-71
2023/12/26 10:17:25;;;;;;;7.72;0.65;;;;;;;12.00;81.02;100285.31;5020720;27;97195;-70
2023/12/26 10:19:51;;;;;;;5.28;0.60;;;;;;;11.86;79.90;100285.13;5029159;27;99023;-70
2023/12/26 10:22:18;;;;;;;1.63;0.50;;;;;;;11.64;79.10;100285.25;5030739;27;97745;-71
2023/12/26 10:24:45;;;;;;;6.68;0.93;;;;;;;12.30;77.48;100270.56;5030898;27;97358;-71
2023/12/26 10:27:15;;;;;;;5.80;0.90;;;;;;;13.04;74.61;100268.50;5030444;27;97332;-72
2023/12/26 10:29:42;;;;;;;6.22;0.80;;;;;;;12.95;72.92;100282.22;5028949;27;97577;-71
2023/12/26 10:32:13;;;;;;;11.13;0.80;;;;;;;12.13;76.46;100285.59;5030023;27;100424;-72
2023/12/26 10:34:39;;;;;;;4.38;0.70;;;;;;;12.16;76.63;100288.91;5030634;27;97341;-71
2023/12/26 10:37:06;;;;;;;5.90;0.60;;;;;;;11.63;77.24;100295.91;5030992;27;96812;-71
2023/12/26 10:39:35;;;;;;;5.00;0.60;;;;;;;11.80;77.25;100304.81;5025226;28;101815;-70
2023/12/26 10:42:11;;;;;;;5.90;0.80;;;;;;;11.69;78.13;100309.69;5026642;27;100529;-72
2023/12/26 10:44:38;;;;;;;5.82;0.80;;;;;;;11.74;77.06;100306.88;5026542;27;96765;-71
2023/12/26 10:47:05;;;;;;;8.10;1.20;;;;;;;11.11;78.97;100316.78;5030004;27;97227;-72
2023/12/26 10:49:32;;;;;;;8.65;1.02;;;;;;;11.54;77.75;100318.38;5028458;27;98969;-71
2023/12/26 10:52:02;;;;;;;7.05;1.27;;;;;;;12.12;75.80;100345.63;5024384;27;98843;-71
2023/12/26 10:54:29;;;;;;;4.03;0.88;;;;;;;11.56;75.72;100324.44;5026924;27;97093;-71
2023/12/26 10:56:58;;;;;;;6.30;1.05;;;;;;;11.55;74.97;100330.69;5029249;27;96754;-72
2023/12/26 10:59:26;;;;;;;8.07;1.00;;;;;;;11.23;76.29;100329.47;5028774;27;98868;-72
2023/12/26 11:01:51;;;;;;;8.80;1.42;;;;;;;11.64;75.06;100348.75;5032706;27;98845;-72
2023/12/26 11:04:17;;;;;;;;;;;;;;;11.50;75.58;100320.28;5031572;27;96767;-71
2023/12/26 11:06:44;;;;;;;19.15;2.38;;;;;;;11.78;74.28;100350.81;5026890;27;97082;-71
2023/12/26 11:09:10;;;;;;;8.02;1.60;;;;;;;12.35;71.73;100355.09;5028987;27;99163;-72
2023/12/26 11:11:36;;;;;;;;;;;;;;;12.45;71.17;100361.69;5033527;27;99517;-71
2023/12/26 11:14:03;;;;;;;10.82;1.30;;;;;;;12.15;71.46;100360.50;5030137;27;96797;-71
2023/12/26 11:16:30;;;;;;;6.20;1.20;;;;;;;10.96;76.18;100367.72;5032310;28;97045;-71
2023/12/26 11:18:56;;;;;;;7.28;1.60;;;;;;;10.99;76.50;100354.34;5021558;27;98850;-71
2023/12/26 11:21:22;;;;;;;;;;;;;;;11.02;76.90;100364.81;5032665;27;98831;-71
2023/12/26 11:23:49;;;;;;;9.50;1.73;;;;;;;11.39;75.96;100362.25;5033847;27;96807;-71